sensor_id;sensor_type;location;lat;lon;timestamp;pressure;altitude;pressure_sealevel;temperature;humidity
63916;BME280;50094;51.356;-0.196;2022-12-11T00:01:29;100175.36;;;19.31;25.02
63916;BME280;50094;51.356;-0.196;2022-12-11T00:03:56;100174.26;;;19.28;25.02
63916;BME280;50094;51.356;-0.196;2022-12-11T00:06:23;100171.21;;;19.45;25.04
63916;BME280;50094;51.356;-0.196;2022-12-11T00:08:51;100168.66;;;19.11;25.04
63916;BME280;50094;51.356;-0.196;2022-12-11T00:11:18;100166.77;;;19.03;25.04
63916;BME280;50094;51.356;-0.196;2022-12-11T00:13:46;100167.45;;;19.01;25.05
63916;BME280;50094;51.356;-0.196;2022-12-11T00:16:14;100164.49;;;19.00;25.06
63916;BME280;50094;51.356;-0.196;2022-12-11T00:18:42;100159.61;;;18.99;25.03
63916;BME280;50094;51.356;-0.196;2022-12-11T00:21:11;100159.95;;;19.31;25.00
63916;BME280;50094;51.356;-0.196;2022-12-11T00:23:40;100160.88;;;18.95;25.02
63916;BME280;50094;51.356;-0.196;2022-12-11T00:26:11;100157.12;;;19.45;25.00
63916;BME280;50094;51.356;-0.196;2022-12-11T00:28:38;100157.33;;;18.93;25.01
63916;BME280;50094;51.356;-0.196;2022-12-11T00:31:10;100158.36;;;18.92;24.99
63916;BME280;50094;51.356;-0.196;2022-12-11T00:33:38;100159.26;;;19.14;25.01
63916;BME280;50094;51.356;-0.196;2022-12-11T00:36:10;100162.43;;;18.93;24.95
63916;BME280;50094;51.356;-0.196;2022-12-11T00:38:38;100162.34;;;18.89;24.97
63916;BME280;50094;51.356;-0.196;2022-12-11T00:41:05;100159.71;;;19.30;25.00
63916;BME280;50094;51.356;-0.196;2022-12-11T00:43:33;100154.74;;;18.85;24.96
63916;BME280;50094;51.356;-0.196;2022-12-11T00:46:00;100155.67;;;19.07;24.96
63916;BME280;50094;51.356;-0.196;2022-12-11T00:48:28;100153.70;;;18.80;24.93
63916;BME280;50094;51.356;-0.196;2022-12-11T00:50:56;100153.06;;;19.09;24.90
63916;BME280;50094;51.356;-0.196;2022-12-11T00:53:23;100151.15;;;19.07;24.90
63916;BME280;50094;51.356;-0.196;2022-12-11T00:55:50;100148.49;;;19.25;24.91
63916;BME280;50094;51.356;-0.196;2022-12-11T00:58:18;100141.51;;;18.71;24.92
63916;BME280;50094;51.356;-0.196;2022-12-11T01:00:45;100136.39;;;18.98;24.90
63916;BME280;50094;51.356;-0.196;2022-12-11T01:03:13;100133.30;;;18.96;24.88
63916;BME280;50094;51.356;-0.196;2022-12-11T01:05:40;100131.65;;;18.63;24.89
63916;BME280;50094;51.356;-0.196;2022-12-11T01:08:07;100129.54;;;18.80;24.93
63916;BME280;50094;51.356;-0.196;2022-12-11T01:10:34;100126.80;;;18.58;24.90
63916;BME280;50094;51.356;-0.196;2022-12-11T01:13:04;100125.57;;;18.58;24.88
63916;BME280;50094;51.356;-0.196;2022-12-11T01:15:33;100124.47;;;18.70;24.81
63916;BME280;50094;51.356;-0.196;2022-12-11T01:18:01;100123.77;;;18.83;24.85
63916;BME280;50094;51.356;-0.196;2022-12-11T01:20:28;100124.45;;;18.87;24.82
63916;BME280;50094;51.356;-0.196;2022-12-11T01:22:57;100125.65;;;18.57;24.79
63916;BME280;50094;51.356;-0.196;2022-12-11T01:25:26;100129.15;;;18.79;24.83
63916;BME280;50094;51.356;-0.196;2022-12-11T01:27:54;100128.19;;;18.58;24.79
63916;BME280;50094;51.356;-0.196;2022-12-11T01:30:24;100127.62;;;18.83;24.81
63916;BME280;50094;51.356;-0.196;2022-12-11T01:32:51;100124.81;;;18.78;24.82
63916;BME280;50094;51.356;-0.196;2022-12-11T01:35:19;100122.57;;;18.79;24.81
63916;BME280;50094;51.356;-0.196;2022-12-11T01:37:46;100124.40;;;18.78;24.81
63916;BME280;50094;51.356;-0.196;2022-12-11T01:40:17;100124.70;;;18.74;24.83
63916;BME280;50094;51.356;-0.196;2022-12-11T01:42:44;100125.76;;;18.99;24.80
63916;BME280;50094;51.356;-0.196;2022-12-11T01:45:24;100123.92;;;18.47;24.80
63916;BME280;50094;51.356;-0.196;2022-12-11T01:47:55;100122.68;;;18.83;24.73
63916;BME280;50094;51.356;-0.196;2022-12-11T01:50:27;100123.56;;;18.58;24.69
63916;BME280;50094;51.356;-0.196;2022-12-11T01:52:55;100127.55;;;18.49;24.73
63916;BME280;50094;51.356;-0.196;2022-12-11T01:55:23;100130.65;;;18.80;24.68
63916;BME280;50094;51.356;-0.196;2022-12-11T01:57:50;100132.71;;;18.79;24.68
63916;BME280;50094;51.356;-0.196;2022-12-11T02:00:20;100133.05;;;18.55;24.64
63916;BME280;50094;51.356;-0.196;2022-12-11T02:02:47;100132.23;;;18.70;24.68
63916;BME280;50094;51.356;-0.196;2022-12-11T02:05:14;100132.83;;;18.72;24.66
63916;BME280;50094;51.356;-0.196;2022-12-11T02:07:45;100134.27;;;18.59;24.71
63916;BME280;50094;51.356;-0.196;2022-12-11T02:10:14;100139.41;;;18.63;24.69
63916;BME280;50094;51.356;-0.196;2022-12-11T02:12:52;100142.88;;;18.67;24.67
63916;BME280;50094;51.356;-0.196;2022-12-11T02:15:27;100141.18;;;18.92;24.62
63916;BME280;50094;51.356;-0.196;2022-12-11T02:18:05;100136.59;;;18.86;24.65
63916;BME280;50094;51.356;-0.196;2022-12-11T02:20:37;100132.38;;;18.78;24.67
63916;BME280;50094;51.356;-0.196;2022-12-11T02:23:23;100129.54;;;18.31;24.68
63916;BME280;50094;51.356;-0.196;2022-12-11T02:26:00;100128.86;;;18.82;24.66
63916;BME280;50094;51.356;-0.196;2022-12-11T02:28:33;100133.19;;;18.39;24.61
63916;BME280;50094;51.356;-0.196;2022-12-11T02:31:06;100131.15;;;18.39;24.58
63916;BME280;50094;51.356;-0.196;2022-12-11T02:33:40;100129.55;;;18.83;24.61
63916;BME280;50094;51.356;-0.196;2022-12-11T02:36:11;100125.85;;;18.52;24.62
63916;BME280;50094;51.356;-0.196;2022-12-11T02:38:42;100123.22;;;18.53;24.62
63916;BME280;50094;51.356;-0.196;2022-12-11T02:41:10;100119.33;;;18.49;24.62
63916;BME280;50094;51.356;-0.196;2022-12-11T02:43:39;100116.85;;;18.47;24.65
63916;BME280;50094;51.356;-0.196;2022-12-11T02:46:07;100119.23;;;18.30;24.63
63916;BME280;50094;51.356;-0.196;2022-12-11T02:48:36;100117.83;;;18.66;24.68
63916;BME280;50094;51.356;-0.196;2022-12-11T02:51:05;100120.76;;;18.53;24.63
63916;BME280;50094;51.356;-0.196;2022-12-11T02:53:37;100120.06;;;18.29;24.62
63916;BME280;50094;51.356;-0.196;2022-12-11T02:56:10;100118.86;;;18.49;24.63
63916;BME280;50094;51.356;-0.196;2022-12-11T02:58:44;100114.73;;;18.45;24.63
63916;BME280;50094;51.356;-0.196;2022-12-11T03:01:13;100108.88;;;18.41;24.62
63916;BME280;50094;51.356;-0.196;2022-12-11T03:03:40;100109.82;;;18.28;24.56
63916;BME280;50094;51.356;-0.196;2022-12-11T03:06:10;100111.29;;;18.71;24.59
63916;BME280;50094;51.356;-0.196;2022-12-11T03:08:41;100109.64;;;18.55;24.54
63916;BME280;50094;51.356;-0.196;2022-12-11T03:11:09;100106.10;;;18.68;24.54
63916;BME280;50094;51.356;-0.196;2022-12-11T03:13:37;100099.99;;;18.49;24.54
63916;BME280;50094;51.356;-0.196;2022-12-11T03:16:09;100100.61;;;18.15;24.53
63916;BME280;50094;51.356;-0.196;2022-12-11T03:18:45;100095.99;;;18.63;24.54
63916;BME280;50094;51.356;-0.196;2022-12-11T03:21:21;100093.30;;;18.59;24.52
63916;BME280;50094;51.356;-0.196;2022-12-11T03:23:56;100088.83;;;18.51;24.54
63916;BME280;50094;51.356;-0.196;2022-12-11T03:26:29;100081.38;;;18.32;24.53
63916;BME280;50094;51.356;-0.196;2022-12-11T03:29:01;100071.02;;;18.15;24.48
63916;BME280;50094;51.356;-0.196;2022-12-11T03:31:35;100066.42;;;18.38;24.46
63916;BME280;50094;51.356;-0.196;2022-12-11T03:34:11;100063.79;;;18.43;24.44
63916;BME280;50094;51.356;-0.196;2022-12-11T03:36:41;100061.21;;;18.39;24.44
63916;BME280;50094;51.356;-0.196;2022-12-11T03:39:12;100055.85;;;18.33;24.44
63916;BME280;50094;51.356;-0.196;2022-12-11T03:41:43;100053.37;;;18.31;24.42
63916;BME280;50094;51.356;-0.196;2022-12-11T03:44:13;100050.00;;;18.57;24.39
63916;BME280;50094;51.356;-0.196;2022-12-11T03:46:40;100051.30;;;18.55;24.39
63916;BME280;50094;51.356;-0.196;2022-12-11T03:49:14;100056.70;;;18.47;24.39
63916;BME280;50094;51.356;-0.196;2022-12-11T03:51:42;100056.01;;;18.30;24.36
63916;BME280;50094;51.356;-0.196;2022-12-11T03:54:11;100055.06;;;18.57;24.33
63916;BME280;50094;51.356;-0.196;2022-12-11T03:56:40;100062.59;;;17.08;24.36
63916;BME280;50094;51.356;-0.196;2022-12-11T03:59:09;100060.02;;;18.67;24.16
63916;BME280;50094;51.356;-0.196;2022-12-11T04:01:36;100063.50;;;18.31;24.18
63916;BME280;50094;51.356;-0.196;2022-12-11T04:04:03;100062.29;;;18.36;24.11
63916;BME280;50094;51.356;-0.196;2022-12-11T04:06:31;100062.71;;;18.67;24.16
63916;BME280;50094;51.356;-0.196;2022-12-11T04:08:58;100069.29;;;18.27;24.22
63916;BME280;50094;51.356;-0.196;2022-12-11T04:11:25;100075.53;;;18.50;24.23
63916;BME280;50094;51.356;-0.196;2022-12-11T04:13:52;100080.04;;;18.53;24.15
63916;BME280;50094;51.356;-0.196;2022-12-11T04:16:19;100075.99;;;18.31;24.16
63916;BME280;50094;51.356;-0.196;2022-12-11T04:18:46;100076.41;;;18.42;24.21
63916;BME280;50094;51.356;-0.196;2022-12-11T04:21:14;100076.70;;;18.38;24.21
63916;BME280;50094;51.356;-0.196;2022-12-11T04:23:41;100073.08;;;18.15;24.23
63916;BME280;50094;51.356;-0.196;2022-12-11T04:26:10;100069.65;;;18.26;24.14
63916;BME280;50094;51.356;-0.196;2022-12-11T04:28:37;100066.19;;;18.20;24.15
63916;BME280;50094;51.356;-0.196;2022-12-11T04:31:06;100062.58;;;18.08;24.20
63916;BME280;50094;51.356;-0.196;2022-12-11T04:33:37;100057.66;;;18.24;24.21
63916;BME280;50094;51.356;-0.196;2022-12-11T04:36:05;100053.07;;;18.27;24.21
63916;BME280;50094;51.356;-0.196;2022-12-11T04:38:32;100048.95;;;18.26;24.22
63916;BME280;50094;51.356;-0.196;2022-12-11T04:41:02;100046.30;;;18.29;24.19
63916;BME280;50094;51.356;-0.196;2022-12-11T04:43:30;100044.15;;;18.29;24.19
63916;BME280;50094;51.356;-0.196;2022-12-11T04:46:02;100045.76;;;17.97;24.23
63916;BME280;50094;51.356;-0.196;2022-12-11T04:48:29;100041.58;;;18.37;24.13
63916;BME280;50094;51.356;-0.196;2022-12-11T04:50:57;100043.05;;;18.30;24.14
63916;BME280;50094;51.356;-0.196;2022-12-11T04:53:25;100041.87;;;18.23;24.15
63916;BME280;50094;51.356;-0.196;2022-12-11T04:55:53;100040.69;;;18.10;24.20
63916;BME280;50094;51.356;-0.196;2022-12-11T04:58:20;100037.77;;;18.13;24.18
63916;BME280;50094;51.356;-0.196;2022-12-11T05:00:47;100036.04;;;18.11;24.17
63916;BME280;50094;51.356;-0.196;2022-12-11T05:03:14;100034.74;;;18.10;24.19
63916;BME280;50094;51.356;-0.196;2022-12-11T05:05:46;100035.13;;;18.08;24.20
63916;BME280;50094;51.356;-0.196;2022-12-11T05:08:13;100032.14;;;18.07;24.19
63916;BME280;50094;51.356;-0.196;2022-12-11T05:10:40;100030.07;;;18.07;24.17
63916;BME280;50094;51.356;-0.196;2022-12-11T05:13:08;100027.69;;;17.87;24.16
63916;BME280;50094;51.356;-0.196;2022-12-11T05:15:37;100028.98;;;18.10;24.15
63916;BME280;50094;51.356;-0.196;2022-12-11T05:18:04;100028.13;;;18.06;24.15
63916;BME280;50094;51.356;-0.196;2022-12-11T05:20:31;100030.22;;;17.99;24.18
63916;BME280;50094;51.356;-0.196;2022-12-11T05:22:58;100032.64;;;17.96;24.18
63916;BME280;50094;51.356;-0.196;2022-12-11T05:25:26;100033.54;;;17.98;24.16
63916;BME280;50094;51.356;-0.196;2022-12-11T05:27:52;100033.10;;;18.02;24.15
63916;BME280;50094;51.356;-0.196;2022-12-11T05:30:20;100035.31;;;17.98;24.15
63916;BME280;50094;51.356;-0.196;2022-12-11T05:32:47;100032.84;;;17.98;24.13
63916;BME280;50094;51.356;-0.196;2022-12-11T05:35:14;100029.11;;;18.03;24.10
63916;BME280;50094;51.356;-0.196;2022-12-11T05:37:41;100027.72;;;17.98;24.11
63916;BME280;50094;51.356;-0.196;2022-12-11T05:40:09;100022.71;;;17.93;24.12
63916;BME280;50094;51.356;-0.196;2022-12-11T05:42:37;100025.56;;;17.84;24.12
63916;BME280;50094;51.356;-0.196;2022-12-11T05:45:04;100028.87;;;17.80;24.15
63916;BME280;50094;51.356;-0.196;2022-12-11T05:47:32;100029.50;;;17.83;24.16
63916;BME280;50094;51.356;-0.196;2022-12-11T05:49:59;100027.86;;;17.81;24.16
63916;BME280;50094;51.356;-0.196;2022-12-11T05:52:26;100023.93;;;17.82;24.15
63916;BME280;50094;51.356;-0.196;2022-12-11T05:54:53;100018.00;;;17.84;24.13
63916;BME280;50094;51.356;-0.196;2022-12-11T05:57:20;100011.57;;;17.97;24.07
63916;BME280;50094;51.356;-0.196;2022-12-11T05:59:47;100012.07;;;17.77;24.04
63916;BME280;50094;51.356;-0.196;2022-12-11T06:02:14;100013.06;;;17.94;24.07
63916;BME280;50094;51.356;-0.196;2022-12-11T06:04:41;100014.39;;;17.95;24.09
63916;BME280;50094;51.356;-0.196;2022-12-11T06:07:08;100017.25;;;18.02;24.13
63916;BME280;50094;51.356;-0.196;2022-12-11T06:09:36;100014.77;;;18.01;24.12
63916;BME280;50094;51.356;-0.196;2022-12-11T06:12:03;100013.37;;;17.93;24.16
63916;BME280;50094;51.356;-0.196;2022-12-11T06:14:31;100011.28;;;18.31;24.19
63916;BME280;50094;51.356;-0.196;2022-12-11T06:16:57;100007.92;;;18.66;24.22
63916;BME280;50094;51.356;-0.196;2022-12-11T06:19:25;100010.12;;;18.70;24.25
63916;BME280;50094;51.356;-0.196;2022-12-11T06:21:52;100013.46;;;18.25;24.28
63916;BME280;50094;51.356;-0.196;2022-12-11T06:24:19;100010.07;;;18.32;24.27
63916;BME280;50094;51.356;-0.196;2022-12-11T06:26:46;100008.91;;;18.49;24.24
63916;BME280;50094;51.356;-0.196;2022-12-11T06:29:13;100006.40;;;18.53;24.26
63916;BME280;50094;51.356;-0.196;2022-12-11T06:31:40;100005.36;;;18.61;24.25
63916;BME280;50094;51.356;-0.196;2022-12-11T06:34:08;100003.26;;;18.66;24.22
63916;BME280;50094;51.356;-0.196;2022-12-11T06:36:34;99999.14;;;18.71;24.20
63916;BME280;50094;51.356;-0.196;2022-12-11T06:39:02;99998.05;;;18.84;24.16
63916;BME280;50094;51.356;-0.196;2022-12-11T06:41:30;99997.80;;;18.88;24.16
63916;BME280;50094;51.356;-0.196;2022-12-11T06:43:56;100001.57;;;18.97;24.11
63916;BME280;50094;51.356;-0.196;2022-12-11T06:46:23;100005.81;;;18.96;24.15
63916;BME280;50094;51.356;-0.196;2022-12-11T06:48:51;100007.19;;;19.00;24.09
63916;BME280;50094;51.356;-0.196;2022-12-11T06:51:19;100006.88;;;19.01;24.10
63916;BME280;50094;51.356;-0.196;2022-12-11T06:53:50;100007.43;;;19.00;24.09
63916;BME280;50094;51.356;-0.196;2022-12-11T06:56:18;100006.92;;;19.03;24.11
63916;BME280;50094;51.356;-0.196;2022-12-11T06:58:46;100008.59;;;19.00;24.10
63916;BME280;50094;51.356;-0.196;2022-12-11T07:01:15;100009.81;;;19.02;24.10
63916;BME280;50094;51.356;-0.196;2022-12-11T07:03:42;100010.95;;;18.84;24.11
63916;BME280;50094;51.356;-0.196;2022-12-11T07:06:10;100017.88;;;19.16;24.08
63916;BME280;50094;51.356;-0.196;2022-12-11T07:08:37;100013.45;;;19.20;24.11
63916;BME280;50094;51.356;-0.196;2022-12-11T07:11:07;100009.36;;;19.22;24.09
63916;BME280;50094;51.356;-0.196;2022-12-11T07:13:35;100008.02;;;18.98;24.09
63916;BME280;50094;51.356;-0.196;2022-12-11T07:16:03;100009.15;;;19.21;24.09
63916;BME280;50094;51.356;-0.196;2022-12-11T07:18:31;100008.90;;;19.23;24.07
63916;BME280;50094;51.356;-0.196;2022-12-11T07:20:58;100004.15;;;19.21;24.07
63916;BME280;50094;51.356;-0.196;2022-12-11T07:23:25;100003.30;;;19.28;24.02
63916;BME280;50094;51.356;-0.196;2022-12-11T07:25:53;100005.08;;;19.27;24.04
63916;BME280;50094;51.356;-0.196;2022-12-11T07:28:20;100007.33;;;19.28;24.00
63916;BME280;50094;51.356;-0.196;2022-12-11T07:30:48;100007.49;;;19.38;23.95
63916;BME280;50094;51.356;-0.196;2022-12-11T07:33:15;100005.33;;;19.35;23.95
63916;BME280;50094;51.356;-0.196;2022-12-11T07:35:42;100003.07;;;19.39;23.96
63916;BME280;50094;51.356;-0.196;2022-12-11T07:38:09;100004.32;;;19.36;23.94
63916;BME280;50094;51.356;-0.196;2022-12-11T07:40:36;100000.95;;;19.46;23.89
63916;BME280;50094;51.356;-0.196;2022-12-11T07:43:03;100002.47;;;19.28;23.85
63916;BME280;50094;51.356;-0.196;2022-12-11T07:45:30;100001.17;;;19.48;23.85
63916;BME280;50094;51.356;-0.196;2022-12-11T07:47:57;100002.26;;;19.45;23.86
63916;BME280;50094;51.356;-0.196;2022-12-11T07:50:25;100006.21;;;19.22;23.87
63916;BME280;50094;51.356;-0.196;2022-12-11T07:52:52;100009.01;;;19.09;23.84
63916;BME280;50094;51.356;-0.196;2022-12-11T07:55:19;100008.08;;;19.59;23.79
63916;BME280;50094;51.356;-0.196;2022-12-11T07:57:47;100010.45;;;19.24;23.86
63916;BME280;50094;51.356;-0.196;2022-12-11T08:00:14;100013.65;;;19.36;23.84
63916;BME280;50094;51.356;-0.196;2022-12-11T08:02:42;100017.27;;;19.37;23.81
63916;BME280;50094;51.356;-0.196;2022-12-11T08:05:09;100019.11;;;19.34;23.83
63916;BME280;50094;51.356;-0.196;2022-12-11T08:07:36;100018.44;;;19.33;23.83
63916;BME280;50094;51.356;-0.196;2022-12-11T08:10:04;100017.56;;;19.06;23.82
63916;BME280;50094;51.356;-0.196;2022-12-11T08:12:31;100016.75;;;19.27;23.80
63916;BME280;50094;51.356;-0.196;2022-12-11T08:14:59;100017.79;;;19.52;23.74
63916;BME280;50094;51.356;-0.196;2022-12-11T08:17:26;100018.16;;;19.25;23.75
63916;BME280;50094;51.356;-0.196;2022-12-11T08:19:54;100014.55;;;19.20;23.71
63916;BME280;50094;51.356;-0.196;2022-12-11T08:22:21;100010.81;;;19.26;23.64
63916;BME280;50094;51.356;-0.196;2022-12-11T08:24:48;100008.58;;;19.43;23.61
63916;BME280;50094;51.356;-0.196;2022-12-11T08:27:15;100006.55;;;18.88;23.58
63916;BME280;50094;51.356;-0.196;2022-12-11T08:29:42;100008.85;;;19.35;23.51
63916;BME280;50094;51.356;-0.196;2022-12-11T08:32:09;100006.77;;;19.31;23.50
63916;BME280;50094;51.356;-0.196;2022-12-11T08:34:37;100008.14;;;19.05;23.46
63916;BME280;50094;51.356;-0.196;2022-12-11T08:37:04;100007.07;;;19.12;23.35
63916;BME280;50094;51.356;-0.196;2022-12-11T08:39:31;100008.77;;;18.90;23.31
63916;BME280;50094;51.356;-0.196;2022-12-11T08:41:58;100010.09;;;19.23;23.30
63916;BME280;50094;51.356;-0.196;2022-12-11T08:44:25;100011.96;;;19.24;23.29
63916;BME280;50094;51.356;-0.196;2022-12-11T08:46:53;100013.58;;;19.19;23.29
63916;BME280;50094;51.356;-0.196;2022-12-11T08:49:20;100017.44;;;19.37;23.30
63916;BME280;50094;51.356;-0.196;2022-12-11T08:51:47;100020.15;;;19.06;23.30
63916;BME280;50094;51.356;-0.196;2022-12-11T08:54:14;100022.48;;;18.99;23.30
63916;BME280;50094;51.356;-0.196;2022-12-11T08:56:41;100027.79;;;18.94;23.31
63916;BME280;50094;51.356;-0.196;2022-12-11T08:59:08;100023.88;;;18.89;23.34
63916;BME280;50094;51.356;-0.196;2022-12-11T09:01:36;100021.38;;;18.96;23.25
63916;BME280;50094;51.356;-0.196;2022-12-11T09:04:03;100019.80;;;18.65;23.26
63916;BME280;50094;51.356;-0.196;2022-12-11T09:06:32;100015.65;;;18.83;23.27
63916;BME280;50094;51.356;-0.196;2022-12-11T09:09:01;100013.99;;;19.03;23.30
63916;BME280;50094;51.356;-0.196;2022-12-11T09:11:31;100016.60;;;18.48;23.31
63916;BME280;50094;51.356;-0.196;2022-12-11T09:13:58;100018.89;;;18.63;23.36
63916;BME280;50094;51.356;-0.196;2022-12-11T09:16:26;100017.79;;;18.60;23.38
63916;BME280;50094;51.356;-0.196;2022-12-11T09:18:56;100016.96;;;18.79;23.41
63916;BME280;50094;51.356;-0.196;2022-12-11T09:21:25;100013.82;;;18.61;23.36
63916;BME280;50094;51.356;-0.196;2022-12-11T09:23:53;100016.04;;;19.04;23.38
63916;BME280;50094;51.356;-0.196;2022-12-11T09:26:20;100018.76;;;18.73;23.44
63916;BME280;50094;51.356;-0.196;2022-12-11T09:28:48;100022.28;;;18.77;23.44
63916;BME280;50094;51.356;-0.196;2022-12-11T09:31:18;100020.06;;;18.95;23.46
63916;BME280;50094;51.356;-0.196;2022-12-11T09:33:45;100020.03;;;18.66;23.50
63916;BME280;50094;51.356;-0.196;2022-12-11T09:36:13;100016.60;;;18.68;23.48
63916;BME280;50094;51.356;-0.196;2022-12-11T09:38:40;100016.60;;;18.71;23.47
63916;BME280;50094;51.356;-0.196;2022-12-11T09:41:27;100016.55;;;18.67;23.49
63916;BME280;50094;51.356;-0.196;2022-12-11T09:44:01;100015.17;;;18.40;23.50
63916;BME280;50094;51.356;-0.196;2022-12-11T09:46:31;100015.65;;;18.41;23.51
63916;BME280;50094;51.356;-0.196;2022-12-11T09:49:02;100011.91;;;18.71;23.47
63916;BME280;50094;51.356;-0.196;2022-12-11T09:51:33;100010.89;;;18.62;23.50
63916;BME280;50094;51.356;-0.196;2022-12-11T09:54:03;100010.62;;;18.37;23.53
63916;BME280;50094;51.356;-0.196;2022-12-11T09:56:32;100011.27;;;18.87;23.53
63916;BME280;50094;51.356;-0.196;2022-12-11T09:59:07;100013.15;;;18.36;23.53
63916;BME280;50094;51.356;-0.196;2022-12-11T10:01:47;100015.04;;;18.58;23.53
63916;BME280;50094;51.356;-0.196;2022-12-11T10:04:25;100013.70;;;18.55;23.56
63916;BME280;50094;51.356;-0.196;2022-12-11T10:07:02;100012.79;;;18.59;23.53
63916;BME280;50094;51.356;-0.196;2022-12-11T10:09:37;100015.76;;;18.57;23.52
63916;BME280;50094;51.356;-0.196;2022-12-11T10:12:19;100012.78;;;18.62;23.50
63916;BME280;50094;51.356;-0.196;2022-12-11T10:15:10;100008.62;;;18.83;23.49
63916;BME280;50094;51.356;-0.196;2022-12-11T10:17:41;100004.84;;;18.52;23.52
63916;BME280;50094;51.356;-0.196;2022-12-11T10:20:18;99993.94;;;18.37;23.58
63916;BME280;50094;51.356;-0.196;2022-12-11T10:22:48;99995.44;;;18.45;23.57
63916;BME280;50094;51.356;-0.196;2022-12-11T10:25:20;99998.45;;;18.43;23.60
63916;BME280;50094;51.356;-0.196;2022-12-11T10:27:47;99997.31;;;18.68;23.58
63916;BME280;50094;51.356;-0.196;2022-12-11T10:30:16;99994.74;;;18.40;23.60
63916;BME280;50094;51.356;-0.196;2022-12-11T10:32:52;99993.61;;;18.31;23.62
63916;BME280;50094;51.356;-0.196;2022-12-11T10:35:26;99992.12;;;18.59;23.61
63916;BME280;50094;51.356;-0.196;2022-12-11T10:38:00;99992.14;;;18.55;23.64
63916;BME280;50094;51.356;-0.196;2022-12-11T10:40:33;99990.22;;;18.44;23.59
63916;BME280;50094;51.356;-0.196;2022-12-11T10:43:01;99991.29;;;18.40;23.60
63916;BME280;50094;51.356;-0.196;2022-12-11T10:45:28;99989.67;;;18.41;23.58
63916;BME280;50094;51.356;-0.196;2022-12-11T10:48:04;99992.25;;;18.29;23.64
63916;BME280;50094;51.356;-0.196;2022-12-11T10:50:31;99993.01;;;18.43;23.58
63916;BME280;50094;51.356;-0.196;2022-12-11T10:52:59;99993.10;;;18.39;23.59
63916;BME280;50094;51.356;-0.196;2022-12-11T10:55:29;99991.97;;;18.41;23.60
63916;BME280;50094;51.356;-0.196;2022-12-11T10:58:03;99990.70;;;18.06;23.64
63916;BME280;50094;51.356;-0.196;2022-12-11T11:00:34;99987.27;;;18.68;23.61
63916;BME280;50094;51.356;-0.196;2022-12-11T11:03:03;99985.40;;;18.58;23.65
63916;BME280;50094;51.356;-0.196;2022-12-11T11:05:33;99986.14;;;18.64;23.62
63916;BME280;50094;51.356;-0.196;2022-12-11T11:08:10;99984.49;;;18.16;23.63
63916;BME280;50094;51.356;-0.196;2022-12-11T11:10:50;99982.19;;;18.15;23.62
63916;BME280;50094;51.356;-0.196;2022-12-11T11:13:20;99975.91;;;18.43;23.63
63916;BME280;50094;51.356;-0.196;2022-12-11T11:15:48;99971.74;;;18.68;23.63
63916;BME280;50094;51.356;-0.196;2022-12-11T11:18:22;99970.37;;;18.28;23.58
63916;BME280;50094;51.356;-0.196;2022-12-11T11:20:50;99967.71;;;18.16;23.63
63916;BME280;50094;51.356;-0.196;2022-12-11T11:23:19;99969.41;;;18.12;23.66
63916;BME280;50094;51.356;-0.196;2022-12-11T11:25:50;99969.93;;;18.42;23.66
63916;BME280;50094;51.356;-0.196;2022-12-11T11:28:20;99969.84;;;18.41;23.65
63916;BME280;50094;51.356;-0.196;2022-12-11T11:31:06;99965.87;;;18.36;23.67
63916;BME280;50094;51.356;-0.196;2022-12-11T11:33:35;99964.70;;;18.35;23.68
63916;BME280;50094;51.356;-0.196;2022-12-11T11:36:06;99963.66;;;18.46;23.65
63916;BME280;50094;51.356;-0.196;2022-12-11T11:38:36;99965.49;;;18.17;23.64
63916;BME280;50094;51.356;-0.196;2022-12-11T11:41:12;99965.94;;;18.47;23.65
63916;BME280;50094;51.356;-0.196;2022-12-11T11:43:44;99962.36;;;18.43;23.65
63916;BME280;50094;51.356;-0.196;2022-12-11T11:46:16;99959.33;;;18.39;23.69
63916;BME280;50094;51.356;-0.196;2022-12-11T11:48:52;99958.37;;;18.61;23.69
63916;BME280;50094;51.356;-0.196;2022-12-11T11:51:28;99957.75;;;18.54;23.73
63916;BME280;50094;51.356;-0.196;2022-12-11T11:54:00;99959.46;;;18.39;23.71
63916;BME280;50094;51.356;-0.196;2022-12-11T11:56:31;99955.15;;;18.36;23.72
63916;BME280;50094;51.356;-0.196;2022-12-11T11:59:05;99946.46;;;18.39;23.69
63916;BME280;50094;51.356;-0.196;2022-12-11T12:01:40;99943.43;;;18.30;23.73
63916;BME280;50094;51.356;-0.196;2022-12-11T12:04:10;99943.97;;;18.33;23.73
63916;BME280;50094;51.356;-0.196;2022-12-11T12:06:47;99945.93;;;18.32;23.75
63916;BME280;50094;51.356;-0.196;2022-12-11T12:09:29;99945.82;;;18.30;23.77
63916;BME280;50094;51.356;-0.196;2022-12-11T12:12:08;99943.14;;;18.40;23.84
63916;BME280;50094;51.356;-0.196;2022-12-11T12:14:45;99941.38;;;18.50;23.81
63916;BME280;50094;51.356;-0.196;2022-12-11T12:17:21;99936.56;;;17.95;23.85
63916;BME280;50094;51.356;-0.196;2022-12-11T12:20:05;99939.16;;;18.17;23.87
63916;BME280;50094;51.356;-0.196;2022-12-11T12:22:50;99938.92;;;18.29;23.83
63916;BME280;50094;51.356;-0.196;2022-12-11T12:25:24;99940.09;;;18.17;23.88
63916;BME280;50094;51.356;-0.196;2022-12-11T12:27:58;99940.13;;;18.34;23.92
63916;BME280;50094;51.356;-0.196;2022-12-11T12:30:41;99937.74;;;18.17;23.90
63916;BME280;50094;51.356;-0.196;2022-12-11T12:33:21;99934.44;;;18.35;23.93
63916;BME280;50094;51.356;-0.196;2022-12-11T12:35:54;99928.04;;;18.45;23.89
63916;BME280;50094;51.356;-0.196;2022-12-11T12:38:33;99922.56;;;18.50;23.86
63916;BME280;50094;51.356;-0.196;2022-12-11T12:41:05;99920.50;;;18.09;23.82
63916;BME280;50094;51.356;-0.196;2022-12-11T12:43:46;99923.12;;;18.28;23.85
63916;BME280;50094;51.356;-0.196;2022-12-11T12:46:23;99927.28;;;18.02;23.85
63916;BME280;50094;51.356;-0.196;2022-12-11T12:48:56;99926.28;;;18.40;23.89
63916;BME280;50094;51.356;-0.196;2022-12-11T12:51:25;99922.47;;;18.23;23.84
63916;BME280;50094;51.356;-0.196;2022-12-11T12:53:54;99922.51;;;18.13;23.89
63916;BME280;50094;51.356;-0.196;2022-12-11T12:56:24;99921.52;;;17.82;24.35